Ana Sayfa
METAR-TAF:

METAR-TAF

Havaalanları :

La Paz, Meksika

Enlem: 24-04N, Boylam: 110-22W, yükseklik: 21 m

Güncel hava durumu gözlemi

Rapor saat 14:40 UTC de 51 dakika önce yapıldı.
Rüzgar güneydan 4 kt
Sıcaklık 9°C
Nem 71%
Basınç 1020 hPa
Görüş mesafesi: 16.1 km
8000 ft yükseklikte az bulutlu

METAR: MMLP 281440Z 18004KT 10SM FEW080 09/04 A3012 RMK SLP199 5//// 919 8/030 HZY

Saat: 08:31 (15:31 UTC)

Tahmin

Rapor saat 03:23 UTC de 12 saat ve 8 dakika önce yapıldı.
Ayın 28'si saat 06 UTC'den ayın 29'si saat 06 UTC'ye kadar geçerli Tahmin
Rüzgar kuzey/kuzeydoğudan 5 kt
Görüş mesafesi: 10 km
Açık gökyüzü
Ayın 28'si saat 1800 UTC'den
Rüzgar kuzey/kuzeydoğudan 15 kt
Görüş mesafesi: 10 km
25000 ft yükseklikte parçalı bulutlu
Ayın 29'si saat 0500 UTC'den
Rüzgar kuzey/kuzeydoğudan 5 kt
Görüş mesafesi: 10 km
Açık gökyüzü

TAF: MMLP 280323Z 2806/2906 02005KT P6SM SKC FM281800 02015KT P6SM SCT250 FM290500 02005KT P6SM SKC

4.000'den fazla havaalanı için hava durumu gözlemleri ve tahminleri (METAR ve TAF raporları).

Kullanılabilir istasyonlar harita üzerinde sarı ve kırmızı noktalarla gösterilir.

İstasyonun adını görmek için fareyi noktanın üzerinde gezdirin.

Sonrasında hava gözlem ve tahminlerini görmek için tıklayın.

Haritayı değiştirmek için: yaklaştırmak için siyah artı işaretli yeşil düğmeye ve uzaklaştırmak için de eksi işaretli düğmeye hızla tıklayın; bitişik haritalar için yeşil okları kullanın.


METAR-TAF: